Nearby METAR Reports

 

YBBN - Brisbane Intl Ar, Australia
Distance from station: SE 37km
Updated: 15/10/2019 08:30
Mostly cloudy
Mostly cloudy
 Wind from N
Wind: N 17 km/h
Temperature: 21°C
Dew Point: 18°C
Humidity: 83%
Barometer: 1015 hPa
Clouds: Mostly cloudy
Visibility: 10 km
Cloud details: Few Clouds 610 m
Mostly cloudy 1067 m
2019/10/14 22:30 YBBN 142230Z 01009KT 9999 FEW020 BKN035 21/18 Q1015 NOSIG
YAMB - Amberley, Australia
Distance from station: SSW 50km
Updated: 15/10/2019 08:30
Mostly cloudy
Mostly cloudy
 Wind from SSE
Wind: SSE 7 km/h
Temperature: 22°C
Dew Point: 16°C
Humidity: 69%
Barometer: 1015 hPa
Clouds: Mostly cloudy
Visibility: 10 km
Cloud details: Mostly cloudy 884 m
2019/10/14 22:30 YAMB 142230Z 15004KT 080V170 9999 BKN029 22/16 Q1015 NOSIG
 
YBOK - Oakey (army/Civ), Australia
Distance from station: WSW 112km
Updated: 15/10/2019 08:00
Mostly cloudy
Mostly cloudy
 Wind from NE
Wind: NE 22 km/h
Temperature: 20°C
Dew Point: 15°C
Humidity: 73%
Barometer: 1014 hPa
Clouds: Mostly cloudy
Visibility: 10 km
Cloud details: Partly cloudy 610 m
Mostly cloudy 884 m
2019/10/14 22:00 YBOK 142200Z 05012KT 9999 SCT020 BKN029 20/15 Q1014 NOSIG
YKRY - Kingaroy Arpt, Australia
Distance from station: NW 121km
Updated: 15/10/2019 08:30
Overcast
Overcast
 Wind from N
Wind: N 20 km/h
Temperature: 21°C
Dew Point: 16°C
Humidity: 73%
Barometer: 1015 hPa
Clouds: Overcast
Visibility: 10 km
Cloud details: Mostly cloudy 457 m
Overcast 671 m
2019/10/14 22:30 YKRY 142230Z AUTO 36011KT 9999 // BKN015 OVC022 21/16 Q1015
 
YBCG - Coolangatta Aws, Australia
Distance from station: SSE 127km
Updated: 15/10/2019 08:30
Mostly cloudy
Mostly cloudy
 Wind from NW
Wind: NW 13 km/h
Temperature: 21°C
Dew Point: 16°C
Humidity: 73%
Barometer: 1015 hPa
Clouds: Mostly cloudy
Visibility: 10 km
Cloud details: Partly cloudy 732 m
Mostly cloudy 945 m
Mostly cloudy 1128 m
2019/10/14 22:30 YBCG 142230Z AUTO 31007KT 9999 // SCT024 BKN031 BKN037 21/16 Q1015
YLIS - Lismore Arpt, Australia
Distance from station: SSE 187km
Updated: 15/10/2019 08:00
Clear
Clear
 Wind from NNW
Wind: NNW 13 km/h
Temperature: 21°C
Dew Point: 16°C
Humidity: 73%
Barometer: 1014 hPa
Clouds: Clear
Visibility: 10 km
2019/10/14 22:00 YLIS 142200Z AUTO 33007KT 9999 // NCD 21/16 Q1014
 
YCAS - Casino Airport, Australia
Distance from station: S 189km
Updated: 15/10/2019 08:00

 Wind from NW
Wind: NW 9 km/h
Temperature: 19°C
Dew Point: 15°C
Humidity: 78%
Barometer: 1015 hPa
2019/10/14 22:00 YCAS 142200Z AUTO 32005KT //// // ////// 19/15 Q1015
YBNA - Ballina Byron G., Australia
Distance from station: SSE 196km
Updated: 15/10/2019 08:00
Clear
Clear
 Wind from NNW
Wind: NNW 15 km/h
Temperature: 21°C
Dew Point: 18°C
Humidity: 83%
Barometer: 1014 hPa
Clouds: Clear
Visibility: 10 km
2019/10/14 22:00 YBNA 142200Z AUTO 34008KT 9999 // NCD 21/18 Q1014
 
YBUD - Bundaberg, Australia
Distance from station: NNW 260km
Updated: 15/10/2019 08:00
Overcast
Overcast
 Wind from N
Wind: N 24 km/h
Temperature: 23°C
Dew Point: 17°C
Humidity: 69%
Barometer: 1015 hPa
Clouds: Overcast
Visibility: 10 km
Cloud details: Partly cloudy 671 m
Overcast 884 m
2019/10/14 22:00 YBUD 142200Z AUTO 36013KT 9999 // SCT022 OVC029 23/17 Q1015
YGFN - Grafton Arpt, Australia
Distance from station: S 287km
Updated: 15/10/2019 08:00
Clear
Clear
 Wind from NNE
Wind: NNE 7 km/h
Temperature: 20°C
Dew Point: 19°C
Humidity: 94%
Barometer: 1015 hPa
Clouds: Clear
Visibility: 10 km
2019/10/14 22:00 YGFN 142200Z AUTO 03004KT 350V100 9999 // NCD 20/19 Q1015